createdAt,value
2018-03-18T00:00:43.781Z,0.00
2018-03-18T00:01:43.935Z,0.00
2018-03-18T00:02:43.718Z,0.00
2018-03-18T00:03:43.690Z,0.00
2018-03-18T00:04:43.670Z,0.00
2018-03-18T00:05:43.628Z,0.00
2018-03-18T00:06:43.609Z,0.00
2018-03-18T00:07:43.570Z,0.00
2018-03-18T00:08:43.542Z,0.00
2018-03-18T00:09:43.514Z,0.00
2018-03-18T00:10:43.484Z,0.00
2018-03-18T00:11:43.451Z,0.00
2018-03-18T00:12:43.424Z,0.00
2018-03-18T00:13:43.394Z,0.00
2018-03-18T00:14:43.371Z,0.00
2018-03-18T00:15:43.334Z,0.00
2018-03-18T00:16:43.315Z,0.00
2018-03-18T00:17:43.275Z,0.00
2018-03-18T00:18:43.247Z,0.00
2018-03-18T00:19:43.219Z,0.00
2018-03-18T00:20:43.199Z,0.00
2018-03-18T00:21:43.166Z,0.00
2018-03-18T00:22:43.139Z,0.00
2018-03-18T00:23:43.100Z,0.00
2018-03-18T00:24:43.080Z,0.00
2018-03-18T00:25:43.048Z,0.00
2018-03-18T00:26:43.012Z,0.00
2018-03-18T00:27:42.988Z,0.00
2018-03-18T00:28:42.958Z,0.00
2018-03-18T00:29:42.930Z,0.00
2018-03-18T00:30:42.896Z,0.00
2018-03-18T00:31:42.862Z,0.00
2018-03-18T00:32:42.834Z,0.00
2018-03-18T00:33:42.919Z,0.00
2018-03-18T00:34:42.781Z,0.00
2018-03-18T00:35:42.758Z,0.00
2018-03-18T00:36:42.726Z,0.00
2018-03-18T00:37:42.685Z,0.00
2018-03-18T00:38:42.660Z,0.00
2018-03-18T00:39:42.632Z,0.00
2018-03-18T00:40:42.600Z,0.00
2018-03-18T00:41:42.571Z,0.00
2018-03-18T00:42:42.539Z,0.00
2018-03-18T00:43:42.518Z,0.00
2018-03-18T00:44:42.479Z,0.00
2018-03-18T00:45:42.457Z,0.00
2018-03-18T00:46:42.527Z,0.00
2018-03-18T00:47:42.398Z,0.00
2018-03-18T00:48:42.379Z,0.00
2018-03-18T00:49:42.332Z,0.00
2018-03-18T00:50:42.306Z,0.00
2018-03-18T00:51:42.277Z,0.00
2018-03-18T00:52:42.242Z,0.00
2018-03-18T00:53:42.214Z,0.00
2018-03-18T00:54:42.184Z,0.00
2018-03-18T00:55:42.158Z,0.00
2018-03-18T00:56:42.131Z,0.00
2018-03-18T00:57:42.094Z,0.00
2018-03-18T00:58:42.067Z,0.00
2018-03-18T00:59:42.058Z,0.00
2018-03-18T01:00:42.010Z,0.00
2018-03-18T01:01:41.978Z,0.00
2018-03-18T01:02:41.974Z,0.00
2018-03-18T01:03:41.918Z,0.00
2018-03-18T01:04:41.886Z,0.00
2018-03-18T01:05:41.873Z,0.00
2018-03-18T01:06:41.834Z,0.00
2018-03-18T01:07:41.799Z,0.00
2018-03-18T01:08:41.772Z,0.00
2018-03-18T01:09:41.848Z,0.00
2018-03-18T01:10:41.711Z,0.00
2018-03-18T01:11:41.684Z,0.00
2018-03-18T01:12:41.653Z,0.00
2018-03-18T01:13:41.623Z,0.00
2018-03-18T01:14:41.596Z,0.00
2018-03-18T01:15:41.561Z,0.00
2018-03-18T01:16:41.638Z,0.00
2018-03-18T01:17:41.523Z,0.00
2018-03-18T01:18:41.474Z,0.00
2018-03-18T01:19:41.524Z,0.00
2018-03-18T01:20:41.415Z,0.00
2018-03-18T01:21:41.385Z,0.00
2018-03-18T01:22:41.356Z,0.00
2018-03-18T01:23:41.328Z,0.00
2018-03-18T01:24:41.297Z,0.00
2018-03-18T01:25:41.275Z,0.00
2018-03-18T01:26:41.238Z,0.00
2018-03-18T01:27:41.206Z,0.00
2018-03-18T01:28:41.184Z,0.00
2018-03-18T01:29:41.147Z,0.00
2018-03-18T01:30:41.117Z,0.00
2018-03-18T01:31:41.104Z,0.00
2018-03-18T01:32:41.074Z,0.00
2018-03-18T01:33:41.028Z,0.00
2018-03-18T01:34:41.000Z,0.00
2018-03-18T01:35:40.977Z,0.00
2018-03-18T01:36:40.938Z,0.00
2018-03-18T01:37:40.913Z,0.00
2018-03-18T01:38:40.959Z,0.00
2018-03-18T01:39:40.850Z,0.00
2018-03-18T01:40:40.831Z,0.00
2018-03-18T01:41:40.793Z,0.00
2018-03-18T01:42:40.766Z,0.00
2018-03-18T01:43:40.733Z,0.00
2018-03-18T01:44:40.703Z,0.00
2018-03-18T01:45:40.695Z,0.00
2018-03-18T01:46:40.655Z,0.00
2018-03-18T01:47:40.619Z,0.00
2018-03-18T01:48:40.600Z,0.00
2018-03-18T01:49:40.555Z,0.00
2018-03-18T01:50:40.525Z,0.00
2018-03-18T01:51:40.632Z,0.00
2018-03-18T01:52:40.464Z,0.00
2018-03-18T01:53:40.445Z,0.00
2018-03-18T01:54:40.515Z,0.00
2018-03-18T01:55:40.378Z,0.00
2018-03-18T01:56:40.345Z,0.00
2018-03-18T01:57:40.317Z,0.00
2018-03-18T01:58:40.287Z,0.00
2018-03-18T01:59:40.255Z,0.00
2018-03-18T02:00:40.231Z,0.00
2018-03-18T02:01:40.202Z,0.00
2018-03-18T02:02:40.171Z,0.00
2018-03-18T02:03:40.140Z,0.00
2018-03-18T02:04:40.119Z,0.00
2018-03-18T02:05:40.095Z,0.00
2018-03-18T02:06:40.058Z,0.00
2018-03-18T02:07:40.026Z,0.00
2018-03-18T02:08:39.990Z,0.00
2018-03-18T02:09:40.073Z,0.00
2018-03-18T02:10:39.931Z,0.00
2018-03-18T02:11:39.902Z,0.00
2018-03-18T02:12:39.871Z,0.00
2018-03-18T02:13:39.850Z,0.00
2018-03-18T02:14:39.816Z,0.00
2018-03-18T02:15:39.777Z,0.00
2018-03-18T02:16:39.765Z,0.00
2018-03-18T02:17:39.854Z,0.00
2018-03-18T02:18:39.697Z,0.00
2018-03-18T02:19:39.684Z,0.00
2018-03-18T02:20:39.783Z,0.00
2018-03-18T02:21:39.604Z,0.00
2018-03-18T02:22:39.577Z,0.00
2018-03-18T02:23:39.552Z,0.00
2018-03-18T02:24:39.522Z,0.00
2018-03-18T02:25:39.518Z,0.00
2018-03-18T02:26:39.457Z,0.00
2018-03-18T02:27:39.429Z,0.00
2018-03-18T02:28:39.404Z,0.00
2018-03-18T02:29:39.367Z,0.00
2018-03-18T02:30:39.341Z,0.00
2018-03-18T02:31:39.308Z,0.00
2018-03-18T02:32:39.279Z,0.00
2018-03-18T02:33:39.249Z,0.00
2018-03-18T02:34:39.222Z,0.00
2018-03-18T02:35:39.198Z,0.00
2018-03-18T02:36:39.162Z,0.00
2018-03-18T02:37:39.131Z,0.00
2018-03-18T02:38:39.103Z,0.00
2018-03-18T02:39:39.077Z,0.00
2018-03-18T02:40:39.055Z,0.00
2018-03-18T02:41:39.012Z,0.00
2018-03-18T02:42:38.981Z,0.00
2018-03-18T02:43:38.952Z,0.00
2018-03-18T02:44:38.925Z,0.00
2018-03-18T02:45:38.898Z,0.00
2018-03-18T02:46:38.866Z,0.00
2018-03-18T02:47:38.853Z,0.00
2018-03-18T02:48:38.804Z,0.00
2018-03-18T02:49:38.774Z,0.00
2018-03-18T02:50:38.745Z,0.00
2018-03-18T02:51:38.722Z,0.00
2018-03-18T02:52:38.781Z,0.00
2018-03-18T02:53:38.655Z,0.00
2018-03-18T02:54:38.625Z,0.00
2018-03-18T02:55:38.600Z,0.00
2018-03-18T02:56:38.564Z,0.00
2018-03-18T02:57:38.536Z,0.00
2018-03-18T02:58:38.504Z,0.00
2018-03-18T02:59:38.483Z,0.00
2018-03-18T03:00:38.442Z,0.00
2018-03-18T03:01:38.439Z,0.00
2018-03-18T03:02:38.385Z,0.00
2018-03-18T03:03:38.355Z,0.00
2018-03-18T03:04:38.326Z,0.00
2018-03-18T03:05:38.304Z,0.00
2018-03-18T03:06:38.262Z,0.00
2018-03-18T03:07:38.237Z,0.00
2018-03-18T03:08:38.306Z,0.00
2018-03-18T03:09:38.175Z,0.00
2018-03-18T03:10:38.208Z,0.00
2018-03-18T03:11:38.117Z,0.00
2018-03-18T03:12:38.082Z,0.00
2018-03-18T03:13:38.059Z,0.00
2018-03-18T03:14:38.037Z,0.00
2018-03-18T03:15:37.993Z,0.00
2018-03-18T03:16:37.964Z,0.00
2018-03-18T03:17:37.934Z,0.00
2018-03-18T03:18:37.913Z,0.00
2018-03-18T03:19:37.872Z,0.00
2018-03-18T03:20:37.867Z,0.00
2018-03-18T03:21:37.816Z,0.00
2018-03-18T03:22:37.793Z,0.00
2018-03-18T03:23:37.752Z,0.00
2018-03-18T03:24:37.721Z,0.00
2018-03-18T03:25:37.697Z,0.00
2018-03-18T03:26:37.666Z,0.00
2018-03-18T03:27:37.630Z,0.00
2018-03-18T03:28:37.612Z,0.00
2018-03-18T03:29:37.569Z,0.00
2018-03-18T03:30:37.542Z,0.00
2018-03-18T03:31:37.514Z,0.00
2018-03-18T03:32:37.482Z,0.00
2018-03-18T03:33:37.452Z,0.00
2018-03-18T03:34:37.420Z,0.00
2018-03-18T03:35:37.392Z,0.00
2018-03-18T03:36:37.360Z,0.00
2018-03-18T03:37:37.331Z,0.00
2018-03-18T03:38:37.300Z,0.00
2018-03-18T03:39:37.280Z,0.00
2018-03-18T03:40:37.242Z,0.00
2018-03-18T03:41:37.211Z,0.00
2018-03-18T03:42:37.182Z,0.00
2018-03-18T03:43:37.263Z,0.00
2018-03-18T03:44:37.128Z,0.00
2018-03-18T03:45:37.093Z,0.00
2018-03-18T03:46:37.130Z,0.00
2018-03-18T03:47:37.031Z,0.00
2018-03-18T03:48:37.000Z,0.00
2018-03-18T03:49:36.985Z,0.00
2018-03-18T03:50:36.940Z,0.00
2018-03-18T03:51:36.918Z,0.00
2018-03-18T03:52:36.892Z,0.00
2018-03-18T03:53:36.858Z,0.00
2018-03-18T03:54:36.820Z,0.00
2018-03-18T03:55:36.792Z,0.00
2018-03-18T03:56:36.758Z,0.00
2018-03-18T03:57:36.734Z,0.00
2018-03-18T03:58:36.698Z,0.00
2018-03-18T03:59:36.669Z,0.00
2018-03-18T04:00:36.639Z,0.00
2018-03-18T04:01:36.617Z,0.00
2018-03-18T04:02:36.578Z,0.00
2018-03-18T04:03:36.574Z,0.00
2018-03-18T04:04:36.518Z,0.00
2018-03-18T04:05:36.488Z,0.00
2018-03-18T04:06:36.457Z,0.00
2018-03-18T04:07:36.425Z,0.00
2018-03-18T04:08:36.502Z,0.00
2018-03-18T04:09:36.366Z,0.00
2018-03-18T04:10:36.337Z,0.00
2018-03-18T04:11:36.414Z,0.00
2018-03-18T04:12:36.276Z,0.00
2018-03-18T04:13:36.266Z,0.00
2018-03-18T04:14:36.266Z,0.00
2018-03-18T04:15:36.184Z,0.00
2018-03-18T04:16:36.155Z,0.00
2018-03-18T04:17:36.133Z,0.00
2018-03-18T04:18:36.094Z,0.00
2018-03-18T04:19:36.068Z,0.00
2018-03-18T04:20:36.033Z,0.00
2018-03-18T04:21:36.008Z,0.00
2018-03-18T04:22:36.080Z,0.00
2018-03-18T04:23:35.943Z,0.00
2018-03-18T04:24:35.915Z,0.00
2018-03-18T04:25:35.990Z,0.00
2018-03-18T04:26:35.857Z,0.00
2018-03-18T04:27:35.839Z,0.00
2018-03-18T04:28:35.799Z,0.00
2018-03-18T04:29:35.768Z,0.00
2018-03-18T04:30:35.732Z,0.00
2018-03-18T04:31:35.706Z,0.00
2018-03-18T04:32:35.674Z,0.00
2018-03-18T04:33:35.658Z,0.00
2018-03-18T04:34:35.614Z,0.00
2018-03-18T04:35:35.583Z,0.00
2018-03-18T04:36:35.550Z,0.00
2018-03-18T04:37:35.530Z,0.00
2018-03-18T04:38:35.496Z,0.00
2018-03-18T04:39:35.464Z,0.00
2018-03-18T04:40:35.431Z,0.00
2018-03-18T04:41:35.400Z,0.00
2018-03-18T04:42:35.388Z,0.00
2018-03-18T04:43:35.345Z,0.00
2018-03-18T04:44:35.311Z,0.00
2018-03-18T04:45:35.280Z,0.00
2018-03-18T04:46:35.251Z,0.00
2018-03-18T04:47:35.225Z,0.00
2018-03-18T04:48:35.192Z,0.00
2018-03-18T04:49:35.161Z,0.00
2018-03-18T04:50:35.129Z,0.00
2018-03-18T04:51:35.102Z,0.00
2018-03-18T04:52:35.065Z,0.00
2018-03-18T04:53:35.034Z,0.00
2018-03-18T04:54:35.009Z,0.00
2018-03-18T04:55:34.975Z,0.00
2018-03-18T04:56:34.945Z,0.00
2018-03-18T04:57:34.919Z,0.00
2018-03-18T04:58:34.886Z,0.00
2018-03-18T04:59:34.855Z,0.00
2018-03-18T05:00:34.823Z,0.00
2018-03-18T05:01:34.796Z,0.00
2018-03-18T05:02:34.765Z,0.00
2018-03-18T05:03:34.787Z,0.00
2018-03-18T05:04:34.704Z,0.00
2018-03-18T05:05:34.681Z,0.00
2018-03-18T05:06:34.656Z,0.00
2018-03-18T05:07:34.613Z,0.00
2018-03-18T05:08:34.580Z,0.00
2018-03-18T05:09:34.560Z,0.00
2018-03-18T05:10:34.521Z,0.00
2018-03-18T05:11:34.498Z,0.00
2018-03-18T05:12:34.463Z,0.00
2018-03-18T05:13:34.438Z,0.00
2018-03-18T05:14:34.400Z,0.00
2018-03-18T05:15:34.367Z,0.00
2018-03-18T05:16:34.356Z,0.00
2018-03-18T05:17:34.307Z,0.00
2018-03-18T05:18:34.278Z,0.00
2018-03-18T05:19:34.246Z,0.00
2018-03-18T05:20:34.216Z,0.00
2018-03-18T05:21:34.240Z,0.00
2018-03-18T05:22:34.155Z,0.00
2018-03-18T05:23:34.126Z,0.00
2018-03-18T05:24:34.096Z,0.00
2018-03-18T05:25:34.066Z,0.00
2018-03-18T05:26:34.035Z,0.00
2018-03-18T05:27:34.005Z,0.00
2018-03-18T05:28:33.971Z,0.00
2018-03-18T05:29:33.944Z,5.63
2018-03-18T05:30:33.914Z,5.63
2018-03-18T05:31:33.881Z,5.63
2018-03-18T05:32:33.849Z,5.63
2018-03-18T05:33:33.819Z,5.63
2018-03-18T05:34:33.801Z,5.63
2018-03-18T05:35:33.791Z,5.63
2018-03-18T05:36:33.737Z,5.63
2018-03-18T05:37:33.699Z,11.25
2018-03-18T05:38:33.670Z,11.25
2018-03-18T05:39:33.636Z,11.25
2018-03-18T05:40:33.606Z,11.25
2018-03-18T05:41:33.576Z,16.88
2018-03-18T05:42:33.549Z,16.88
2018-03-18T05:43:33.519Z,16.88
2018-03-18T05:44:33.485Z,16.88
2018-03-18T05:45:33.458Z,22.50
2018-03-18T05:46:33.435Z,22.50
2018-03-18T05:47:33.397Z,22.50
2018-03-18T05:48:33.365Z,28.13
2018-03-18T05:49:33.336Z,28.13
2018-03-18T05:50:33.310Z,28.13
2018-03-18T05:51:33.271Z,33.75
2018-03-18T05:52:33.244Z,33.75
2018-03-18T05:53:33.212Z,33.75
2018-03-18T05:54:33.182Z,39.38
2018-03-18T05:55:33.151Z,39.38
2018-03-18T05:56:33.121Z,39.38
2018-03-18T05:57:33.229Z,45.00
2018-03-18T05:58:33.060Z,45.00
2018-03-18T05:59:33.031Z,50.63
2018-03-18T06:00:33.063Z,50.63
2018-03-18T06:01:32.965Z,56.25
2018-03-18T06:02:32.940Z,56.25
2018-03-18T06:03:32.947Z,61.88
2018-03-18T06:04:32.879Z,67.50
2018-03-18T06:05:32.844Z,67.50
2018-03-18T06:06:32.821Z,67.50
2018-03-18T06:07:32.784Z,73.13
2018-03-18T06:08:32.754Z,73.13
2018-03-18T06:09:32.727Z,78.75
2018-03-18T06:10:32.695Z,84.38
2018-03-18T06:11:32.713Z,90.00
2018-03-18T06:12:32.642Z,95.63
2018-03-18T06:13:32.603Z,101.25
2018-03-18T06:14:32.679Z,106.88
2018-03-18T06:15:32.544Z,112.50
2018-03-18T06:16:32.517Z,118.13
2018-03-18T06:17:32.494Z,123.75
2018-03-18T06:18:32.453Z,123.75
2018-03-18T06:19:32.478Z,129.38
2018-03-18T06:20:32.399Z,135.00
2018-03-18T06:21:32.363Z,146.25
2018-03-18T06:22:32.333Z,157.50
2018-03-18T06:23:32.302Z,157.50
2018-03-18T06:24:32.285Z,163.13
2018-03-18T06:25:32.250Z,168.75
2018-03-18T06:26:32.212Z,174.38
2018-03-18T06:27:32.183Z,174.38
2018-03-18T06:28:32.151Z,180.00
2018-03-18T06:29:32.121Z,191.25
2018-03-18T06:30:32.092Z,191.25
2018-03-18T06:31:32.096Z,196.88
2018-03-18T06:32:32.171Z,196.88
2018-03-18T06:33:32.010Z,202.50
2018-03-18T06:34:31.970Z,202.50
2018-03-18T06:35:31.949Z,208.13
2018-03-18T06:36:31.911Z,208.13
2018-03-18T06:37:31.909Z,208.13
2018-03-18T06:38:31.852Z,213.75
2018-03-18T06:39:31.821Z,225.00
2018-03-18T06:40:31.791Z,230.63
2018-03-18T06:41:31.761Z,236.25
2018-03-18T06:42:31.744Z,236.25
2018-03-18T06:43:31.704Z,241.88
2018-03-18T06:44:31.673Z,241.88
2018-03-18T06:45:31.646Z,247.50
2018-03-18T06:46:31.671Z,247.50
2018-03-18T06:47:31.604Z,247.50
2018-03-18T06:48:31.556Z,253.13
2018-03-18T06:49:31.524Z,253.13
2018-03-18T06:50:31.495Z,264.38
2018-03-18T06:51:31.466Z,270.00
2018-03-18T06:52:31.434Z,270.00
2018-03-18T06:53:31.412Z,275.63
2018-03-18T06:54:31.376Z,275.63
2018-03-18T06:55:31.346Z,281.25
2018-03-18T06:56:31.316Z,281.25
2018-03-18T06:57:31.287Z,292.50
2018-03-18T06:58:31.260Z,292.50
2018-03-18T06:59:31.227Z,298.13
2018-03-18T07:00:31.207Z,298.13
2018-03-18T07:01:31.175Z,298.13
2018-03-18T07:02:31.153Z,298.13
2018-03-18T07:03:31.108Z,298.13
2018-03-18T07:04:31.125Z,298.13
2018-03-18T07:05:31.052Z,303.75
2018-03-18T07:06:31.022Z,303.75
2018-03-18T07:07:31.003Z,309.38
2018-03-18T07:08:30.966Z,309.38
2018-03-18T07:09:30.940Z,315.00
2018-03-18T07:10:30.901Z,320.63
2018-03-18T07:11:30.935Z,326.25
2018-03-18T07:12:30.844Z,331.88
2018-03-18T07:13:30.821Z,331.88
2018-03-18T07:14:30.787Z,337.50
2018-03-18T07:15:30.753Z,326.25
2018-03-18T07:16:30.723Z,326.25
2018-03-18T07:17:30.696Z,326.25
2018-03-18T07:18:30.664Z,326.25
2018-03-18T07:19:30.635Z,331.88
2018-03-18T07:20:30.610Z,337.50
2018-03-18T07:21:30.582Z,343.13
2018-03-18T07:22:30.550Z,343.13
2018-03-18T07:23:30.519Z,343.13
2018-03-18T07:24:30.490Z,354.38
2018-03-18T07:25:30.518Z,348.75
2018-03-18T07:26:30.429Z,348.75
2018-03-18T07:27:30.549Z,348.75
2018-03-18T07:28:30.376Z,348.75
2018-03-18T07:29:30.346Z,343.13
2018-03-18T07:30:30.325Z,343.13
2018-03-18T07:31:30.284Z,348.75
2018-03-18T07:32:30.258Z,354.38
2018-03-18T07:33:30.227Z,354.38
2018-03-18T07:34:30.203Z,354.38
2018-03-18T07:35:30.168Z,348.75
2018-03-18T07:36:30.202Z,348.75
2018-03-18T07:37:30.107Z,354.38
2018-03-18T07:38:30.107Z,354.38
2018-03-18T07:39:30.066Z,360.00
2018-03-18T07:40:30.033Z,354.38
2018-03-18T07:41:29.999Z,360.00
2018-03-18T07:42:29.962Z,365.63
2018-03-18T07:43:29.939Z,371.25
2018-03-18T07:44:29.906Z,382.50
2018-03-18T07:45:29.890Z,382.50
2018-03-18T07:46:29.848Z,393.75
2018-03-18T07:47:29.821Z,393.75
2018-03-18T07:48:29.794Z,393.75
2018-03-18T07:49:29.763Z,399.38
2018-03-18T07:50:29.779Z,405.00
2018-03-18T07:51:29.707Z,405.00
2018-03-18T07:52:29.680Z,410.63
2018-03-18T07:53:29.646Z,416.25
2018-03-18T07:54:29.626Z,416.25
2018-03-18T07:55:29.588Z,421.88
2018-03-18T07:56:29.558Z,421.88
2018-03-18T07:57:29.530Z,433.13
2018-03-18T07:58:29.500Z,433.13
2018-03-18T07:59:29.476Z,427.50
2018-03-18T08:00:29.463Z,433.13
2018-03-18T08:01:29.415Z,438.75
2018-03-18T08:02:29.389Z,450.00
2018-03-18T08:03:29.359Z,450.00
2018-03-18T08:04:29.327Z,450.00
2018-03-18T08:05:29.302Z,450.00
2018-03-18T08:06:29.270Z,461.25
2018-03-18T08:07:29.265Z,455.63
2018-03-18T08:08:29.218Z,450.00
2018-03-18T08:09:29.184Z,450.00
2018-03-18T08:10:29.169Z,450.00
2018-03-18T08:11:29.123Z,444.38
2018-03-18T08:12:29.095Z,450.00
2018-03-18T08:13:29.066Z,450.00
2018-03-18T08:14:29.037Z,450.00
2018-03-18T08:15:29.015Z,455.63
2018-03-18T08:16:28.978Z,461.25
2018-03-18T08:17:28.948Z,466.88
2018-03-18T08:18:28.921Z,466.88
2018-03-18T08:19:28.892Z,472.50
2018-03-18T08:20:28.869Z,478.13
2018-03-18T08:21:28.833Z,489.38
2018-03-18T08:22:28.892Z,495.00
2018-03-18T08:23:28.774Z,500.63
2018-03-18T08:24:28.744Z,511.88
2018-03-18T08:25:28.791Z,517.50
2018-03-18T08:26:28.687Z,517.50
2018-03-18T08:27:28.658Z,523.13
2018-03-18T08:28:28.632Z,540.00
2018-03-18T08:29:28.602Z,545.63
2018-03-18T08:30:28.582Z,545.63
2018-03-18T08:31:28.544Z,551.25
2018-03-18T08:32:28.521Z,551.25
2018-03-18T08:33:28.486Z,551.25
2018-03-18T08:34:28.460Z,551.25
2018-03-18T08:35:28.442Z,551.25
2018-03-18T08:36:28.412Z,556.88
2018-03-18T08:37:28.376Z,562.50
2018-03-18T08:38:28.349Z,568.13
2018-03-18T08:39:28.313Z,573.75
2018-03-18T08:40:28.283Z,585.00
2018-03-18T08:41:28.271Z,601.88
2018-03-18T08:42:28.231Z,624.38
2018-03-18T08:43:28.199Z,641.25
2018-03-18T08:44:28.251Z,652.50
2018-03-18T08:45:28.142Z,663.75
2018-03-18T08:46:28.116Z,686.25
2018-03-18T08:47:28.120Z,691.88
2018-03-18T08:48:28.056Z,714.38
2018-03-18T08:49:28.030Z,725.63
2018-03-18T08:50:28.003Z,720.00
2018-03-18T08:51:27.977Z,708.75
2018-03-18T08:52:27.944Z,691.88
2018-03-18T08:53:27.927Z,697.50
2018-03-18T08:54:27.888Z,708.75
2018-03-18T08:55:27.859Z,708.75
2018-03-18T08:56:27.834Z,697.50
2018-03-18T08:57:27.803Z,691.88
2018-03-18T08:58:27.777Z,697.50
2018-03-18T08:59:27.749Z,691.88
2018-03-18T09:00:27.721Z,691.88
2018-03-18T09:01:27.700Z,691.88
2018-03-18T09:02:27.671Z,703.13
2018-03-18T09:03:27.637Z,759.38
2018-03-18T09:04:27.615Z,703.13
2018-03-18T09:05:27.583Z,697.50
2018-03-18T09:06:27.567Z,781.88
2018-03-18T09:07:27.529Z,720.00
2018-03-18T09:08:27.511Z,697.50
2018-03-18T09:09:27.471Z,697.50
2018-03-18T09:10:27.454Z,742.50
2018-03-18T09:11:27.417Z,725.63
2018-03-18T09:12:27.395Z,708.75
2018-03-18T09:13:27.362Z,697.50
2018-03-18T09:14:27.337Z,697.50
2018-03-18T09:15:27.329Z,697.50
2018-03-18T09:16:27.280Z,703.13
2018-03-18T09:17:27.276Z,697.50
2018-03-18T09:18:27.226Z,691.88
2018-03-18T09:19:27.199Z,708.75
2018-03-18T09:20:27.174Z,748.13
2018-03-18T09:21:27.153Z,714.38
2018-03-18T09:22:27.131Z,742.50
2018-03-18T09:23:27.095Z,725.63
2018-03-18T09:24:27.066Z,703.13
2018-03-18T09:25:27.041Z,703.13
2018-03-18T09:26:27.012Z,708.75
2018-03-18T09:27:26.980Z,742.50
2018-03-18T09:28:26.963Z,742.50
2018-03-18T09:29:26.934Z,759.38
2018-03-18T09:30:26.914Z,793.13
2018-03-18T09:31:26.879Z,826.88
2018-03-18T09:32:26.859Z,860.63
2018-03-18T09:33:26.819Z,911.25
2018-03-18T09:34:26.795Z,939.38
2018-03-18T09:35:26.763Z,928.13
2018-03-18T09:36:26.738Z,990.00
2018-03-18T09:37:26.717Z,1102.50
2018-03-18T09:38:26.691Z,1040.63
2018-03-18T09:39:26.662Z,1029.38
2018-03-18T09:40:26.625Z,1051.88
2018-03-18T09:41:26.610Z,1170.00
2018-03-18T09:42:26.577Z,1192.50
2018-03-18T09:43:26.548Z,1243.13
2018-03-18T09:44:26.537Z,1248.75
2018-03-18T09:45:26.497Z,1192.50
2018-03-18T09:46:26.484Z,1170.00
2018-03-18T09:47:26.446Z,1181.25
2018-03-18T09:48:26.438Z,1186.88
2018-03-18T09:49:26.396Z,1198.13
2018-03-18T09:50:26.372Z,1288.13
2018-03-18T09:51:26.341Z,1445.63
2018-03-18T09:52:26.325Z,1338.75
2018-03-18T09:53:26.291Z,1372.50
2018-03-18T09:54:26.271Z,1479.38
2018-03-18T09:55:26.242Z,1350.00
2018-03-18T09:56:26.274Z,1282.50
2018-03-18T09:57:26.193Z,1350.00
2018-03-18T09:58:26.177Z,1372.50
2018-03-18T09:59:26.154Z,1535.63
2018-03-18T10:00:26.116Z,1372.50
2018-03-18T10:01:26.118Z,1237.50
2018-03-18T10:02:26.066Z,1164.38
2018-03-18T10:03:26.040Z,1153.13
2018-03-18T10:04:26.016Z,1158.75
2018-03-18T10:05:25.990Z,1164.38
2018-03-18T10:06:25.970Z,1175.63
2018-03-18T10:07:25.952Z,1175.63
2018-03-18T10:08:25.915Z,1192.50
2018-03-18T10:09:25.893Z,1243.13
2018-03-18T10:10:25.868Z,1276.88
2018-03-18T10:11:25.959Z,1293.75
2018-03-18T10:12:25.823Z,1237.50
2018-03-18T10:13:25.791Z,1355.63
2018-03-18T10:14:25.769Z,1310.63
2018-03-18T10:15:25.742Z,1226.25
2018-03-18T10:16:25.722Z,1260.00
2018-03-18T10:17:25.690Z,1231.88
2018-03-18T10:18:25.686Z,1372.50
2018-03-18T10:19:25.640Z,1288.13
2018-03-18T10:20:25.618Z,1203.75
2018-03-18T10:21:25.594Z,1333.13
2018-03-18T10:22:25.569Z,1400.63
2018-03-18T10:23:25.543Z,1743.75
2018-03-18T10:24:25.525Z,1530.00
2018-03-18T10:25:25.495Z,1378.13
2018-03-18T10:26:25.470Z,1192.50
2018-03-18T10:27:25.453Z,1136.25
2018-03-18T10:28:25.430Z,1175.63
2018-03-18T10:29:25.406Z,1203.75
2018-03-18T10:30:25.417Z,1170.00
2018-03-18T10:31:25.367Z,1265.63
2018-03-18T10:32:25.324Z,1231.88
2018-03-18T10:33:25.325Z,1254.38
2018-03-18T10:34:25.302Z,1108.13
2018-03-18T10:35:25.250Z,1085.63
2018-03-18T10:36:25.226Z,1051.88
2018-03-18T10:37:25.215Z,1068.75
2018-03-18T10:38:25.398Z,1260.00
2018-03-18T10:39:25.150Z,1063.13
2018-03-18T10:40:25.139Z,1057.50
2018-03-18T10:41:25.117Z,1074.38
2018-03-18T10:42:25.090Z,1068.75
2018-03-18T10:43:25.050Z,1001.25
2018-03-18T10:44:25.028Z,1012.50
2018-03-18T10:45:25.006Z,1096.88
2018-03-18T10:46:24.977Z,1046.25
2018-03-18T10:47:24.955Z,1046.25
2018-03-18T10:48:24.935Z,1068.75
2018-03-18T10:49:24.916Z,1051.88
2018-03-18T10:50:24.889Z,1040.63
2018-03-18T10:51:24.854Z,1035.00
2018-03-18T10:52:24.834Z,1051.88
2018-03-18T10:53:24.805Z,1063.13
2018-03-18T10:54:24.780Z,1068.75
2018-03-18T10:55:24.758Z,1051.88
2018-03-18T10:56:24.730Z,1046.25
2018-03-18T10:57:24.703Z,1051.88
2018-03-18T10:58:24.684Z,1035.00
2018-03-18T10:59:24.658Z,1018.13
2018-03-18T11:00:24.635Z,1046.25
2018-03-18T11:01:24.606Z,995.63
2018-03-18T11:02:24.585Z,1001.25
2018-03-18T11:03:24.646Z,1012.50
2018-03-18T11:04:24.533Z,990.00
2018-03-18T11:05:24.521Z,995.63
2018-03-18T11:06:24.503Z,990.00
2018-03-18T11:07:24.463Z,1001.25
2018-03-18T11:08:24.435Z,1006.88
2018-03-18T11:09:24.423Z,1018.13
2018-03-18T11:10:24.393Z,1035.00
2018-03-18T11:11:24.365Z,1046.25
2018-03-18T11:12:24.337Z,1068.75
2018-03-18T11:13:24.312Z,1080.00
2018-03-18T11:14:24.285Z,1074.38
2018-03-18T11:15:24.262Z,1068.75
2018-03-18T11:16:24.240Z,1096.88
2018-03-18T11:17:24.210Z,1215.00
2018-03-18T11:18:24.185Z,1276.88
2018-03-18T11:19:24.261Z,1378.13
2018-03-18T11:20:24.142Z,1440.00
2018-03-18T11:21:24.116Z,1518.75
2018-03-18T11:22:24.092Z,1833.75
2018-03-18T11:23:24.066Z,1996.88
2018-03-18T11:24:24.065Z,2514.38
2018-03-18T11:25:24.023Z,2407.50
2018-03-18T11:26:24.010Z,1321.88
2018-03-18T11:27:23.965Z,1271.25
2018-03-18T11:28:23.941Z,1400.63
2018-03-18T11:29:23.920Z,1530.00
2018-03-18T11:30:23.898Z,1546.88
2018-03-18T11:31:23.876Z,1338.75
2018-03-18T11:32:23.850Z,1462.50
2018-03-18T11:33:23.829Z,1726.88
2018-03-18T11:34:23.800Z,1468.13
2018-03-18T11:35:23.775Z,1350.00
2018-03-18T11:36:23.762Z,1546.88
2018-03-18T11:37:23.729Z,1293.75
2018-03-18T11:38:23.704Z,1293.75
2018-03-18T11:39:23.682Z,1203.75
2018-03-18T11:40:23.658Z,1248.75
2018-03-18T11:41:23.632Z,1029.38
2018-03-18T11:42:23.618Z,1035.00
2018-03-18T11:43:23.588Z,933.75
2018-03-18T11:44:23.563Z,933.75
2018-03-18T11:45:23.541Z,922.50
2018-03-18T11:46:23.524Z,928.13
2018-03-18T11:47:23.490Z,1006.88
2018-03-18T11:48:23.477Z,1248.75
2018-03-18T11:49:23.468Z,1080.00
2018-03-18T11:50:23.419Z,1333.13
2018-03-18T11:51:23.399Z,1704.38
2018-03-18T11:52:23.381Z,1316.25
2018-03-18T11:53:23.347Z,1338.75
2018-03-18T11:54:23.505Z,1057.50
2018-03-18T11:55:23.299Z,1018.13
2018-03-18T11:56:23.283Z,1085.63
2018-03-18T11:57:23.257Z,1181.25
2018-03-18T11:58:23.241Z,1794.38
2018-03-18T11:59:23.205Z,2126.25
2018-03-18T12:00:23.176Z,1321.88
2018-03-18T12:01:23.160Z,798.75
2018-03-18T12:02:23.135Z,708.75
2018-03-18T12:03:23.101Z,669.38
2018-03-18T12:04:23.079Z,596.25
2018-03-18T12:05:23.062Z,562.50
2018-03-18T12:06:23.033Z,540.00
2018-03-18T12:07:23.005Z,528.75
2018-03-18T12:08:23.068Z,517.50
2018-03-18T12:09:22.958Z,506.25
2018-03-18T12:10:22.953Z,495.00
2018-03-18T12:11:22.908Z,489.38
2018-03-18T12:12:22.884Z,483.75
2018-03-18T12:13:22.861Z,472.50
2018-03-18T12:14:22.834Z,466.88
2018-03-18T12:15:22.813Z,461.25
2018-03-18T12:16:22.793Z,450.00
2018-03-18T12:17:22.773Z,450.00
2018-03-18T12:18:22.758Z,455.63
2018-03-18T12:19:22.772Z,455.63
2018-03-18T12:20:22.687Z,450.00
2018-03-18T12:21:22.677Z,438.75
2018-03-18T12:22:22.635Z,438.75
2018-03-18T12:23:22.621Z,433.13
2018-03-18T12:24:22.595Z,438.75
2018-03-18T12:25:22.577Z,438.75
2018-03-18T12:26:22.538Z,438.75
2018-03-18T12:27:22.517Z,427.50
2018-03-18T12:28:22.497Z,421.88
2018-03-18T12:29:22.468Z,421.88
2018-03-18T12:30:22.493Z,421.88
2018-03-18T12:31:22.415Z,416.25
2018-03-18T12:32:22.389Z,421.88
2018-03-18T12:33:22.494Z,416.25
2018-03-18T12:34:22.332Z,416.25
2018-03-18T12:35:22.306Z,416.25
2018-03-18T12:36:22.290Z,416.25
2018-03-18T12:37:22.252Z,416.25
2018-03-18T12:38:22.227Z,416.25
2018-03-18T12:39:22.202Z,416.25
2018-03-18T12:40:22.191Z,416.25
2018-03-18T12:41:22.163Z,410.63
2018-03-18T12:42:22.120Z,410.63
2018-03-18T12:43:22.098Z,410.63
2018-03-18T12:44:22.179Z,410.63
2018-03-18T12:45:22.055Z,410.63
2018-03-18T12:46:22.027Z,410.63